sensor_id;sensor_type;location;lat;lon;timestamp;P1;durP1;ratioP1;P2;durP2;ratioP2
17598;SDS011;8918;52.092;5.232;2024-02-14T00:01:52;11.53;;;9.53;;
17598;SDS011;8918;52.092;5.232;2024-02-14T00:04:18;10.33;;;9.17;;
17598;SDS011;8918;52.092;5.232;2024-02-14T00:06:44;12.13;;;9.07;;
17598;SDS011;8918;52.092;5.232;2024-02-14T00:09:10;12.40;;;9.17;;
17598;SDS011;8918;52.092;5.232;2024-02-14T00:11:36;11.97;;;9.50;;
17598;SDS011;8918;52.092;5.232;2024-02-14T00:14:02;12.17;;;9.23;;
17598;SDS011;8918;52.092;5.232;2024-02-14T00:16:28;11.60;;;9.43;;
17598;SDS011;8918;52.092;5.232;2024-02-14T00:18:57;12.30;;;10.07;;
17598;SDS011;8918;52.092;5.232;2024-02-14T00:21:23;13.80;;;10.60;;
17598;SDS011;8918;52.092;5.232;2024-02-14T00:23:49;12.63;;;10.43;;
17598;SDS011;8918;52.092;5.232;2024-02-14T00:26:15;12.03;;;10.37;;
17598;SDS011;8918;52.092;5.232;2024-02-14T00:28:41;13.07;;;11.27;;
17598;SDS011;8918;52.092;5.232;2024-02-14T00:31:07;16.37;;;11.40;;
17598;SDS011;8918;52.092;5.232;2024-02-14T00:33:32;17.13;;;11.80;;
17598;SDS011;8918;52.092;5.232;2024-02-14T00:35:58;13.20;;;11.33;;
17598;SDS011;8918;52.092;5.232;2024-02-14T00:38:23;13.80;;;12.07;;
17598;SDS011;8918;52.092;5.232;2024-02-14T00:40:49;15.13;;;12.03;;
17598;SDS011;8918;52.092;5.232;2024-02-14T00:43:15;15.73;;;12.03;;
17598;SDS011;8918;52.092;5.232;2024-02-14T00:45:40;15.20;;;12.47;;
17598;SDS011;8918;52.092;5.232;2024-02-14T00:48:06;16.57;;;12.63;;
17598;SDS011;8918;52.092;5.232;2024-02-14T00:50:32;17.30;;;12.93;;
17598;SDS011;8918;52.092;5.232;2024-02-14T00:52:58;15.97;;;13.43;;
17598;SDS011;8918;52.092;5.232;2024-02-14T00:55:24;15.87;;;12.60;;
17598;SDS011;8918;52.092;5.232;2024-02-14T00:57:50;17.03;;;14.63;;
17598;SDS011;8918;52.092;5.232;2024-02-14T01:00:16;20.77;;;14.90;;
17598;SDS011;8918;52.092;5.232;2024-02-14T01:02:42;20.57;;;15.27;;
17598;SDS011;8918;52.092;5.232;2024-02-14T01:05:08;16.50;;;14.50;;
17598;SDS011;8918;52.092;5.232;2024-02-14T01:07:34;20.67;;;15.03;;
17598;SDS011;8918;52.092;5.232;2024-02-14T01:10:00;17.90;;;14.67;;
17598;SDS011;8918;52.092;5.232;2024-02-14T01:12:26;20.03;;;14.80;;
17598;SDS011;8918;52.092;5.232;2024-02-14T01:14:51;19.13;;;15.10;;
17598;SDS011;8918;52.092;5.232;2024-02-14T01:17:17;17.90;;;14.27;;
17598;SDS011;8918;52.092;5.232;2024-02-14T01:19:42;18.37;;;14.47;;
17598;SDS011;8918;52.092;5.232;2024-02-14T01:22:08;18.87;;;15.03;;
17598;SDS011;8918;52.092;5.232;2024-02-14T01:24:34;18.00;;;14.97;;
17598;SDS011;8918;52.092;5.232;2024-02-14T01:27:00;18.30;;;15.50;;
17598;SDS011;8918;52.092;5.232;2024-02-14T01:29:26;19.17;;;15.53;;
17598;SDS011;8918;52.092;5.232;2024-02-14T01:31:52;18.30;;;15.77;;
17598;SDS011;8918;52.092;5.232;2024-02-14T01:34:18;21.27;;;15.87;;
17598;SDS011;8918;52.092;5.232;2024-02-14T01:36:43;17.60;;;15.53;;
17598;SDS011;8918;52.092;5.232;2024-02-14T01:39:09;22.27;;;16.40;;
17598;SDS011;8918;52.092;5.232;2024-02-14T01:41:43;20.43;;;16.43;;
17598;SDS011;8918;52.092;5.232;2024-02-14T01:44:11;20.27;;;16.13;;
17598;SDS011;8918;52.092;5.232;2024-02-14T01:46:36;19.00;;;16.37;;
17598;SDS011;8918;52.092;5.232;2024-02-14T01:49:03;20.20;;;16.00;;
17598;SDS011;8918;52.092;5.232;2024-02-14T01:51:29;22.27;;;16.23;;
17598;SDS011;8918;52.092;5.232;2024-02-14T01:53:56;20.00;;;16.33;;
17598;SDS011;8918;52.092;5.232;2024-02-14T01:56:25;21.67;;;16.10;;
17598;SDS011;8918;52.092;5.232;2024-02-14T01:58:52;20.23;;;16.00;;
17598;SDS011;8918;52.092;5.232;2024-02-14T02:01:18;20.97;;;16.60;;
17598;SDS011;8918;52.092;5.232;2024-02-14T02:03:44;19.97;;;16.67;;
17598;SDS011;8918;52.092;5.232;2024-02-14T02:06:09;21.47;;;16.57;;
17598;SDS011;8918;52.092;5.232;2024-02-14T02:08:35;23.20;;;17.00;;
17598;SDS011;8918;52.092;5.232;2024-02-14T02:11:01;20.80;;;15.70;;
17598;SDS011;8918;52.092;5.232;2024-02-14T02:13:27;20.50;;;16.40;;
17598;SDS011;8918;52.092;5.232;2024-02-14T02:15:53;19.73;;;15.63;;
17598;SDS011;8918;52.092;5.232;2024-02-14T02:18:19;19.47;;;15.80;;
17598;SDS011;8918;52.092;5.232;2024-02-14T02:20:45;21.77;;;17.03;;
17598;SDS011;8918;52.092;5.232;2024-02-14T02:23:11;21.87;;;16.73;;
17598;SDS011;8918;52.092;5.232;2024-02-14T02:25:40;23.37;;;17.03;;
17598;SDS011;8918;52.092;5.232;2024-02-14T02:28:08;21.30;;;16.13;;
17598;SDS011;8918;52.092;5.232;2024-02-14T02:30:37;21.70;;;16.37;;
17598;SDS011;8918;52.092;5.232;2024-02-14T02:33:03;22.53;;;16.80;;
17598;SDS011;8918;52.092;5.232;2024-02-14T02:35:29;22.97;;;17.37;;
17598;SDS011;8918;52.092;5.232;2024-02-14T02:37:55;26.07;;;18.00;;
17598;SDS011;8918;52.092;5.232;2024-02-14T02:40:21;23.20;;;16.87;;
17598;SDS011;8918;52.092;5.232;2024-02-14T02:42:48;23.27;;;17.00;;
17598;SDS011;8918;52.092;5.232;2024-02-14T02:45:15;19.83;;;16.33;;
17598;SDS011;8918;52.092;5.232;2024-02-14T02:47:41;22.60;;;16.23;;
17598;SDS011;8918;52.092;5.232;2024-02-14T02:50:07;20.47;;;14.83;;
17598;SDS011;8918;52.092;5.232;2024-02-14T02:52:33;20.53;;;16.17;;
17598;SDS011;8918;52.092;5.232;2024-02-14T02:54:59;18.83;;;15.07;;
17598;SDS011;8918;52.092;5.232;2024-02-14T02:57:26;18.70;;;14.73;;
17598;SDS011;8918;52.092;5.232;2024-02-14T02:59:52;18.53;;;14.03;;
17598;SDS011;8918;52.092;5.232;2024-02-14T03:02:19;18.73;;;15.00;;
17598;SDS011;8918;52.092;5.232;2024-02-14T03:04:45;19.17;;;14.37;;
17598;SDS011;8918;52.092;5.232;2024-02-14T03:07:11;19.90;;;14.83;;
17598;SDS011;8918;52.092;5.232;2024-02-14T03:09:37;20.47;;;15.57;;
17598;SDS011;8918;52.092;5.232;2024-02-14T03:12:03;20.17;;;15.53;;
17598;SDS011;8918;52.092;5.232;2024-02-14T03:14:32;21.27;;;15.83;;
17598;SDS011;8918;52.092;5.232;2024-02-14T03:17:07;21.83;;;16.47;;
17598;SDS011;8918;52.092;5.232;2024-02-14T03:19:35;21.63;;;15.67;;
17598;SDS011;8918;52.092;5.232;2024-02-14T03:22:04;21.90;;;16.40;;
17598;SDS011;8918;52.092;5.232;2024-02-14T03:24:30;22.17;;;16.60;;
17598;SDS011;8918;52.092;5.232;2024-02-14T03:26:56;22.87;;;16.77;;
17598;SDS011;8918;52.092;5.232;2024-02-14T03:29:22;25.77;;;16.80;;
17598;SDS011;8918;52.092;5.232;2024-02-14T03:31:47;22.43;;;16.47;;
17598;SDS011;8918;52.092;5.232;2024-02-14T03:34:13;22.33;;;16.73;;
17598;SDS011;8918;52.092;5.232;2024-02-14T03:36:39;24.83;;;16.50;;
17598;SDS011;8918;52.092;5.232;2024-02-14T03:39:05;23.20;;;16.43;;
17598;SDS011;8918;52.092;5.232;2024-02-14T03:41:31;26.30;;;16.43;;
17598;SDS011;8918;52.092;5.232;2024-02-14T03:43:57;26.00;;;17.10;;
17598;SDS011;8918;52.092;5.232;2024-02-14T03:46:28;26.83;;;16.30;;
17598;SDS011;8918;52.092;5.232;2024-02-14T03:48:54;26.13;;;16.63;;
17598;SDS011;8918;52.092;5.232;2024-02-14T03:51:20;26.40;;;15.90;;
17598;SDS011;8918;52.092;5.232;2024-02-14T03:53:47;26.67;;;16.87;;
17598;SDS011;8918;52.092;5.232;2024-02-14T03:56:13;27.93;;;16.07;;
17598;SDS011;8918;52.092;5.232;2024-02-14T03:58:39;28.13;;;16.53;;
17598;SDS011;8918;52.092;5.232;2024-02-14T04:01:05;26.17;;;16.60;;
17598;SDS011;8918;52.092;5.232;2024-02-14T04:03:30;27.90;;;16.70;;
17598;SDS011;8918;52.092;5.232;2024-02-14T04:05:56;28.50;;;17.60;;
17598;SDS011;8918;52.092;5.232;2024-02-14T04:08:22;26.90;;;16.67;;
17598;SDS011;8918;52.092;5.232;2024-02-14T04:10:47;26.87;;;17.03;;
17598;SDS011;8918;52.092;5.232;2024-02-14T04:13:18;25.73;;;15.67;;
17598;SDS011;8918;52.092;5.232;2024-02-14T04:15:44;23.63;;;15.63;;
17598;SDS011;8918;52.092;5.232;2024-02-14T04:18:11;25.63;;;16.20;;
17598;SDS011;8918;52.092;5.232;2024-02-14T04:20:37;27.33;;;15.97;;
17598;SDS011;8918;52.092;5.232;2024-02-14T04:23:02;24.77;;;15.57;;
17598;SDS011;8918;52.092;5.232;2024-02-14T04:25:31;31.03;;;15.83;;
17598;SDS011;8918;52.092;5.232;2024-02-14T04:27:57;30.00;;;15.87;;
17598;SDS011;8918;52.092;5.232;2024-02-14T04:30:24;30.17;;;15.50;;
17598;SDS011;8918;52.092;5.232;2024-02-14T04:32:50;27.87;;;15.30;;
17598;SDS011;8918;52.092;5.232;2024-02-14T04:35:16;27.27;;;15.33;;
17598;SDS011;8918;52.092;5.232;2024-02-14T04:37:42;23.53;;;14.97;;
17598;SDS011;8918;52.092;5.232;2024-02-14T04:40:11;24.27;;;14.67;;
17598;SDS011;8918;52.092;5.232;2024-02-14T04:42:37;26.43;;;15.23;;
17598;SDS011;8918;52.092;5.232;2024-02-14T04:45:03;24.97;;;15.17;;
17598;SDS011;8918;52.092;5.232;2024-02-14T04:47:29;28.57;;;15.17;;
17598;SDS011;8918;52.092;5.232;2024-02-14T04:49:54;26.87;;;15.63;;
17598;SDS011;8918;52.092;5.232;2024-02-14T04:52:20;23.50;;;15.93;;
17598;SDS011;8918;52.092;5.232;2024-02-14T04:54:46;22.63;;;15.33;;
17598;SDS011;8918;52.092;5.232;2024-02-14T04:57:11;25.30;;;14.90;;
17598;SDS011;8918;52.092;5.232;2024-02-14T04:59:37;26.03;;;14.53;;
17598;SDS011;8918;52.092;5.232;2024-02-14T05:02:03;21.90;;;14.60;;
17598;SDS011;8918;52.092;5.232;2024-02-14T05:04:28;22.07;;;14.47;;
17598;SDS011;8918;52.092;5.232;2024-02-14T05:06:54;24.13;;;14.67;;
17598;SDS011;8918;52.092;5.232;2024-02-14T05:09:20;22.10;;;14.37;;
17598;SDS011;8918;52.092;5.232;2024-02-14T05:11:46;25.33;;;14.40;;
17598;SDS011;8918;52.092;5.232;2024-02-14T05:14:11;20.80;;;13.87;;
17598;SDS011;8918;52.092;5.232;2024-02-14T05:16:37;21.93;;;14.83;;
17598;SDS011;8918;52.092;5.232;2024-02-14T05:19:02;24.50;;;14.67;;
17598;SDS011;8918;52.092;5.232;2024-02-14T05:21:28;19.80;;;14.60;;
17598;SDS011;8918;52.092;5.232;2024-02-14T05:23:53;22.93;;;14.57;;
17598;SDS011;8918;52.092;5.232;2024-02-14T05:26:19;21.43;;;14.93;;
17598;SDS011;8918;52.092;5.232;2024-02-14T05:28:44;22.27;;;15.37;;
17598;SDS011;8918;52.092;5.232;2024-02-14T05:31:11;24.00;;;15.97;;
17598;SDS011;8918;52.092;5.232;2024-02-14T05:33:37;22.20;;;15.20;;
17598;SDS011;8918;52.092;5.232;2024-02-14T05:36:02;22.23;;;15.40;;
17598;SDS011;8918;52.092;5.232;2024-02-14T05:38:28;19.50;;;14.73;;
17598;SDS011;8918;52.092;5.232;2024-02-14T05:40:54;19.87;;;14.10;;
17598;SDS011;8918;52.092;5.232;2024-02-14T05:43:20;20.93;;;14.77;;
17598;SDS011;8918;52.092;5.232;2024-02-14T05:45:47;20.17;;;13.87;;
17598;SDS011;8918;52.092;5.232;2024-02-14T05:48:12;21.83;;;14.43;;
17598;SDS011;8918;52.092;5.232;2024-02-14T05:50:39;18.20;;;12.90;;
17598;SDS011;8918;52.092;5.232;2024-02-14T05:53:05;21.27;;;13.63;;
17598;SDS011;8918;52.092;5.232;2024-02-14T05:55:31;19.10;;;13.80;;
17598;SDS011;8918;52.092;5.232;2024-02-14T05:57:57;19.43;;;14.10;;
17598;SDS011;8918;52.092;5.232;2024-02-14T06:00:24;21.17;;;13.77;;
17598;SDS011;8918;52.092;5.232;2024-02-14T06:02:49;18.93;;;13.60;;
17598;SDS011;8918;52.092;5.232;2024-02-14T06:05:16;20.83;;;14.17;;
17598;SDS011;8918;52.092;5.232;2024-02-14T06:07:42;19.13;;;13.57;;
17598;SDS011;8918;52.092;5.232;2024-02-14T06:10:10;21.10;;;14.20;;
17598;SDS011;8918;52.092;5.232;2024-02-14T06:12:36;18.63;;;13.43;;
17598;SDS011;8918;52.092;5.232;2024-02-14T06:15:01;19.90;;;13.80;;
17598;SDS011;8918;52.092;5.232;2024-02-14T06:17:27;17.13;;;12.83;;
17598;SDS011;8918;52.092;5.232;2024-02-14T06:19:53;16.50;;;12.63;;
17598;SDS011;8918;52.092;5.232;2024-02-14T06:22:19;17.70;;;12.73;;
17598;SDS011;8918;52.092;5.232;2024-02-14T06:24:45;16.57;;;12.77;;
17598;SDS011;8918;52.092;5.232;2024-02-14T06:27:13;17.07;;;12.50;;
17598;SDS011;8918;52.092;5.232;2024-02-14T06:29:41;18.53;;;13.07;;
17598;SDS011;8918;52.092;5.232;2024-02-14T06:32:13;18.77;;;14.43;;
17598;SDS011;8918;52.092;5.232;2024-02-14T06:34:39;21.63;;;14.47;;
17598;SDS011;8918;52.092;5.232;2024-02-14T06:37:04;21.97;;;15.70;;
17598;SDS011;8918;52.092;5.232;2024-02-14T06:39:30;20.47;;;15.93;;
17598;SDS011;8918;52.092;5.232;2024-02-14T06:41:56;22.83;;;16.47;;
17598;SDS011;8918;52.092;5.232;2024-02-14T06:44:24;26.27;;;16.37;;
17598;SDS011;8918;52.092;5.232;2024-02-14T06:46:50;25.23;;;17.07;;
17598;SDS011;8918;52.092;5.232;2024-02-14T06:49:16;24.33;;;17.07;;
17598;SDS011;8918;52.092;5.232;2024-02-14T06:51:42;28.77;;;17.57;;
17598;SDS011;8918;52.092;5.232;2024-02-14T06:54:08;24.43;;;18.10;;
17598;SDS011;8918;52.092;5.232;2024-02-14T06:56:35;23.00;;;17.23;;
17598;SDS011;8918;52.092;5.232;2024-02-14T06:59:01;28.00;;;18.40;;
17598;SDS011;8918;52.092;5.232;2024-02-14T07:01:27;28.00;;;18.47;;
17598;SDS011;8918;52.092;5.232;2024-02-14T07:03:56;28.30;;;18.07;;
17598;SDS011;8918;52.092;5.232;2024-02-14T07:06:23;29.70;;;18.83;;
17598;SDS011;8918;52.092;5.232;2024-02-14T07:08:48;30.43;;;19.80;;
17598;SDS011;8918;52.092;5.232;2024-02-14T07:11:14;32.63;;;20.47;;
17598;SDS011;8918;52.092;5.232;2024-02-14T07:13:42;31.93;;;19.47;;
17598;SDS011;8918;52.092;5.232;2024-02-14T07:16:08;31.90;;;20.33;;
17598;SDS011;8918;52.092;5.232;2024-02-14T07:18:33;30.80;;;19.60;;
17598;SDS011;8918;52.092;5.232;2024-02-14T07:20:59;30.03;;;19.93;;
17598;SDS011;8918;52.092;5.232;2024-02-14T07:23:26;34.23;;;20.40;;
17598;SDS011;8918;52.092;5.232;2024-02-14T07:25:52;30.97;;;19.03;;
17598;SDS011;8918;52.092;5.232;2024-02-14T07:28:18;34.87;;;20.00;;
17598;SDS011;8918;52.092;5.232;2024-02-14T07:30:44;32.40;;;20.80;;
17598;SDS011;8918;52.092;5.232;2024-02-14T07:33:09;33.77;;;20.87;;
17598;SDS011;8918;52.092;5.232;2024-02-14T07:35:36;32.77;;;19.97;;
17598;SDS011;8918;52.092;5.232;2024-02-14T07:38:02;33.17;;;19.40;;
17598;SDS011;8918;52.092;5.232;2024-02-14T07:40:27;33.20;;;20.20;;
17598;SDS011;8918;52.092;5.232;2024-02-14T07:42:56;30.00;;;20.30;;
17598;SDS011;8918;52.092;5.232;2024-02-14T07:45:22;35.47;;;20.07;;
17598;SDS011;8918;52.092;5.232;2024-02-14T07:47:50;31.47;;;20.07;;
17598;SDS011;8918;52.092;5.232;2024-02-14T07:50:16;29.87;;;19.13;;
17598;SDS011;8918;52.092;5.232;2024-02-14T07:52:42;29.63;;;18.70;;
17598;SDS011;8918;52.092;5.232;2024-02-14T07:55:09;30.07;;;19.63;;
17598;SDS011;8918;52.092;5.232;2024-02-14T07:57:41;24.83;;;17.53;;
17598;SDS011;8918;52.092;5.232;2024-02-14T08:00:07;27.67;;;17.97;;
17598;SDS011;8918;52.092;5.232;2024-02-14T08:02:34;25.93;;;17.77;;
17598;SDS011;8918;52.092;5.232;2024-02-14T08:05:01;25.87;;;18.23;;
17598;SDS011;8918;52.092;5.232;2024-02-14T08:07:27;31.33;;;18.03;;
17598;SDS011;8918;52.092;5.232;2024-02-14T08:09:52;25.20;;;18.37;;
17598;SDS011;8918;52.092;5.232;2024-02-14T08:12:19;30.43;;;19.03;;
17598;SDS011;8918;52.092;5.232;2024-02-14T08:14:44;27.13;;;18.50;;
17598;SDS011;8918;52.092;5.232;2024-02-14T08:17:10;24.73;;;17.53;;
17598;SDS011;8918;52.092;5.232;2024-02-14T08:19:36;24.53;;;18.80;;
17598;SDS011;8918;52.092;5.232;2024-02-14T08:22:01;27.37;;;18.40;;
17598;SDS011;8918;52.092;5.232;2024-02-14T08:24:27;28.07;;;18.73;;
17598;SDS011;8918;52.092;5.232;2024-02-14T08:26:53;25.03;;;18.20;;
17598;SDS011;8918;52.092;5.232;2024-02-14T08:29:19;26.37;;;17.60;;
17598;SDS011;8918;52.092;5.232;2024-02-14T08:31:45;26.23;;;17.47;;
17598;SDS011;8918;52.092;5.232;2024-02-14T08:34:11;25.47;;;17.47;;
17598;SDS011;8918;52.092;5.232;2024-02-14T08:36:37;24.40;;;17.00;;
17598;SDS011;8918;52.092;5.232;2024-02-14T08:39:07;23.77;;;16.53;;
17598;SDS011;8918;52.092;5.232;2024-02-14T08:41:32;20.67;;;15.70;;
17598;SDS011;8918;52.092;5.232;2024-02-14T08:43:58;26.27;;;16.43;;
17598;SDS011;8918;52.092;5.232;2024-02-14T08:46:24;22.07;;;16.47;;
17598;SDS011;8918;52.092;5.232;2024-02-14T08:48:50;23.53;;;16.13;;
17598;SDS011;8918;52.092;5.232;2024-02-14T08:51:16;22.17;;;16.77;;
17598;SDS011;8918;52.092;5.232;2024-02-14T08:53:45;25.23;;;17.47;;
17598;SDS011;8918;52.092;5.232;2024-02-14T08:56:11;23.20;;;16.53;;
17598;SDS011;8918;52.092;5.232;2024-02-14T08:58:37;25.73;;;17.93;;
17598;SDS011;8918;52.092;5.232;2024-02-14T09:01:02;25.27;;;17.07;;
17598;SDS011;8918;52.092;5.232;2024-02-14T09:03:28;23.93;;;17.73;;
17598;SDS011;8918;52.092;5.232;2024-02-14T09:05:56;27.70;;;17.03;;
17598;SDS011;8918;52.092;5.232;2024-02-14T09:08:22;22.53;;;16.40;;
17598;SDS011;8918;52.092;5.232;2024-02-14T09:10:49;22.07;;;16.07;;
17598;SDS011;8918;52.092;5.232;2024-02-14T09:13:15;20.33;;;14.77;;
17598;SDS011;8918;52.092;5.232;2024-02-14T09:15:40;20.17;;;15.60;;
17598;SDS011;8918;52.092;5.232;2024-02-14T09:18:06;22.47;;;15.37;;
17598;SDS011;8918;52.092;5.232;2024-02-14T09:20:31;22.80;;;15.67;;
17598;SDS011;8918;52.092;5.232;2024-02-14T09:22:57;22.07;;;15.80;;
17598;SDS011;8918;52.092;5.232;2024-02-14T09:25:25;21.70;;;15.37;;
17598;SDS011;8918;52.092;5.232;2024-02-14T09:27:51;22.63;;;16.00;;
17598;SDS011;8918;52.092;5.232;2024-02-14T09:30:17;25.00;;;16.57;;
17598;SDS011;8918;52.092;5.232;2024-02-14T09:32:44;23.80;;;17.10;;
17598;SDS011;8918;52.092;5.232;2024-02-14T09:35:10;23.57;;;18.17;;
17598;SDS011;8918;52.092;5.232;2024-02-14T09:37:35;24.33;;;17.67;;
17598;SDS011;8918;52.092;5.232;2024-02-14T09:40:03;29.50;;;19.80;;
17598;SDS011;8918;52.092;5.232;2024-02-14T09:42:37;32.77;;;20.13;;
17598;SDS011;8918;52.092;5.232;2024-02-14T09:45:07;29.57;;;19.50;;
17598;SDS011;8918;52.092;5.232;2024-02-14T09:47:33;29.10;;;20.87;;
17598;SDS011;8918;52.092;5.232;2024-02-14T09:50:03;28.77;;;19.93;;
17598;SDS011;8918;52.092;5.232;2024-02-14T09:52:32;29.83;;;19.47;;
17598;SDS011;8918;52.092;5.232;2024-02-14T09:54:58;30.63;;;20.73;;
17598;SDS011;8918;52.092;5.232;2024-02-14T09:57:24;29.50;;;19.33;;
17598;SDS011;8918;52.092;5.232;2024-02-14T09:59:51;29.27;;;18.97;;
17598;SDS011;8918;52.092;5.232;2024-02-14T10:02:18;24.93;;;18.63;;
17598;SDS011;8918;52.092;5.232;2024-02-14T10:04:45;26.27;;;17.73;;
17598;SDS011;8918;52.092;5.232;2024-02-14T10:07:10;25.90;;;16.83;;
17598;SDS011;8918;52.092;5.232;2024-02-14T10:09:42;23.00;;;17.20;;
17598;SDS011;8918;52.092;5.232;2024-02-14T10:12:08;21.77;;;15.30;;
17598;SDS011;8918;52.092;5.232;2024-02-14T10:14:35;23.17;;;15.53;;
17598;SDS011;8918;52.092;5.232;2024-02-14T10:17:03;23.93;;;14.93;;
17598;SDS011;8918;52.092;5.232;2024-02-14T10:19:29;20.80;;;15.03;;
17598;SDS011;8918;52.092;5.232;2024-02-14T10:21:56;22.63;;;14.47;;
17598;SDS011;8918;52.092;5.232;2024-02-14T10:24:29;21.20;;;15.73;;
17598;SDS011;8918;52.092;5.232;2024-02-14T10:26:55;20.67;;;14.20;;
17598;SDS011;8918;52.092;5.232;2024-02-14T10:29:22;19.60;;;14.50;;
17598;SDS011;8918;52.092;5.232;2024-02-14T10:31:48;17.27;;;13.47;;
17598;SDS011;8918;52.092;5.232;2024-02-14T10:34:14;20.23;;;13.53;;
17598;SDS011;8918;52.092;5.232;2024-02-14T10:36:42;19.33;;;14.47;;
17598;SDS011;8918;52.092;5.232;2024-02-14T10:39:09;19.93;;;14.27;;
17598;SDS011;8918;52.092;5.232;2024-02-14T10:41:36;22.00;;;14.77;;
17598;SDS011;8918;52.092;5.232;2024-02-14T10:44:02;20.07;;;14.40;;
17598;SDS011;8918;52.092;5.232;2024-02-14T10:46:32;19.40;;;14.00;;
17598;SDS011;8918;52.092;5.232;2024-02-14T10:49:04;21.83;;;13.37;;
17598;SDS011;8918;52.092;5.232;2024-02-14T10:51:30;19.37;;;13.57;;
17598;SDS011;8918;52.092;5.232;2024-02-14T10:53:58;19.33;;;13.70;;
17598;SDS011;8918;52.092;5.232;2024-02-14T10:56:27;17.03;;;13.10;;
17598;SDS011;8918;52.092;5.232;2024-02-14T10:58:55;16.50;;;12.03;;
17598;SDS011;8918;52.092;5.232;2024-02-14T11:01:28;15.80;;;10.93;;
17598;SDS011;8918;52.092;5.232;2024-02-14T11:03:58;14.83;;;11.20;;
17598;SDS011;8918;52.092;5.232;2024-02-14T11:06:25;13.13;;;11.23;;
17598;SDS011;8918;52.092;5.232;2024-02-14T11:09:00;15.17;;;11.37;;
17598;SDS011;8918;52.092;5.232;2024-02-14T11:11:32;14.27;;;11.00;;
17598;SDS011;8918;52.092;5.232;2024-02-14T11:13:58;14.87;;;11.07;;
17598;SDS011;8918;52.092;5.232;2024-02-14T11:16:27;19.50;;;12.87;;
17598;SDS011;8918;52.092;5.232;2024-02-14T11:19:05;16.80;;;12.57;;
17598;SDS011;8918;52.092;5.232;2024-02-14T11:21:40;14.03;;;11.47;;
17598;SDS011;8918;52.092;5.232;2024-02-14T11:24:10;14.63;;;11.37;;
17598;SDS011;8918;52.092;5.232;2024-02-14T11:26:38;14.77;;;11.37;;
17598;SDS011;8918;52.092;5.232;2024-02-14T11:29:16;16.40;;;11.70;;
17598;SDS011;8918;52.092;5.232;2024-02-14T11:31:43;16.97;;;11.33;;
17598;SDS011;8918;52.092;5.232;2024-02-14T11:34:13;15.33;;;11.43;;
17598;SDS011;8918;52.092;5.232;2024-02-14T11:36:42;14.90;;;10.77;;
17598;SDS011;8918;52.092;5.232;2024-02-14T11:39:09;14.07;;;11.50;;
17598;SDS011;8918;52.092;5.232;2024-02-14T11:41:37;16.53;;;11.70;;
17598;SDS011;8918;52.092;5.232;2024-02-14T11:44:03;19.20;;;12.23;;
17598;SDS011;8918;52.092;5.232;2024-02-14T11:46:32;17.00;;;12.20;;
17598;SDS011;8918;52.092;5.232;2024-02-14T11:48:59;15.57;;;11.73;;
17598;SDS011;8918;52.092;5.232;2024-02-14T11:51:27;16.47;;;12.40;;
17598;SDS011;8918;52.092;5.232;2024-02-14T11:53:54;16.10;;;12.47;;
17598;SDS011;8918;52.092;5.232;2024-02-14T11:56:21;17.00;;;12.63;;
17598;SDS011;8918;52.092;5.232;2024-02-14T11:58:47;15.57;;;12.30;;
17598;SDS011;8918;52.092;5.232;2024-02-14T12:01:15;19.33;;;12.93;;
17598;SDS011;8918;52.092;5.232;2024-02-14T12:03:42;17.60;;;13.23;;
17598;SDS011;8918;52.092;5.232;2024-02-14T12:06:09;17.30;;;12.73;;
17598;SDS011;8918;52.092;5.232;2024-02-14T12:08:35;17.47;;;12.90;;
17598;SDS011;8918;52.092;5.232;2024-02-14T12:11:02;16.83;;;12.97;;
17598;SDS011;8918;52.092;5.232;2024-02-14T12:13:27;17.40;;;12.57;;
17598;SDS011;8918;52.092;5.232;2024-02-14T12:15:57;19.07;;;13.03;;
17598;SDS011;8918;52.092;5.232;2024-02-14T12:18:23;15.27;;;11.97;;
17598;SDS011;8918;52.092;5.232;2024-02-14T12:20:48;14.37;;;12.10;;
17598;SDS011;8918;52.092;5.232;2024-02-14T12:23:18;15.90;;;12.37;;
17598;SDS011;8918;52.092;5.232;2024-02-14T12:25:47;14.57;;;12.03;;
17598;SDS011;8918;52.092;5.232;2024-02-14T12:28:16;19.40;;;12.20;;
17598;SDS011;8918;52.092;5.232;2024-02-14T12:30:46;13.40;;;11.17;;
17598;SDS011;8918;52.092;5.232;2024-02-14T12:33:14;15.83;;;11.60;;
17598;SDS011;8918;52.092;5.232;2024-02-14T12:35:44;14.13;;;11.60;;
17598;SDS011;8918;52.092;5.232;2024-02-14T12:38:11;13.67;;;11.00;;
17598;SDS011;8918;52.092;5.232;2024-02-14T12:40:38;12.93;;;10.43;;
17598;SDS011;8918;52.092;5.232;2024-02-14T12:43:09;12.20;;;10.63;;
17598;SDS011;8918;52.092;5.232;2024-02-14T12:45:35;12.90;;;10.67;;
17598;SDS011;8918;52.092;5.232;2024-02-14T12:48:02;13.77;;;10.63;;
17598;SDS011;8918;52.092;5.232;2024-02-14T12:50:27;14.23;;;11.13;;
17598;SDS011;8918;52.092;5.232;2024-02-14T12:52:53;12.77;;;10.47;;
17598;SDS011;8918;52.092;5.232;2024-02-14T12:55:19;12.47;;;10.53;;
17598;SDS011;8918;52.092;5.232;2024-02-14T12:57:45;12.83;;;11.00;;
17598;SDS011;8918;52.092;5.232;2024-02-14T13:00:11;13.07;;;11.17;;
17598;SDS011;8918;52.092;5.232;2024-02-14T13:02:37;12.80;;;11.00;;
17598;SDS011;8918;52.092;5.232;2024-02-14T13:05:03;12.80;;;10.77;;
17598;SDS011;8918;52.092;5.232;2024-02-14T13:07:30;13.20;;;10.97;;
17598;SDS011;8918;52.092;5.232;2024-02-14T13:09:56;14.10;;;10.50;;
17598;SDS011;8918;52.092;5.232;2024-02-14T13:12:22;13.10;;;10.30;;
17598;SDS011;8918;52.092;5.232;2024-02-14T13:14:48;13.40;;;11.20;;
17598;SDS011;8918;52.092;5.232;2024-02-14T13:17:13;13.33;;;9.77;;
17598;SDS011;8918;52.092;5.232;2024-02-14T13:19:39;12.37;;;10.63;;
17598;SDS011;8918;52.092;5.232;2024-02-14T13:22:07;13.77;;;10.40;;
17598;SDS011;8918;52.092;5.232;2024-02-14T13:24:33;12.00;;;9.73;;
17598;SDS011;8918;52.092;5.232;2024-02-14T13:26:59;11.57;;;9.63;;
17598;SDS011;8918;52.092;5.232;2024-02-14T13:29:24;11.33;;;10.10;;
17598;SDS011;8918;52.092;5.232;2024-02-14T13:31:50;11.93;;;9.53;;
17598;SDS011;8918;52.092;5.232;2024-02-14T13:34:16;12.50;;;9.77;;
17598;SDS011;8918;52.092;5.232;2024-02-14T13:36:44;10.30;;;8.60;;
17598;SDS011;8918;52.092;5.232;2024-02-14T13:39:11;10.73;;;8.77;;
17598;SDS011;8918;52.092;5.232;2024-02-14T13:41:40;10.70;;;9.53;;
17598;SDS011;8918;52.092;5.232;2024-02-14T13:44:08;10.80;;;8.83;;
17598;SDS011;8918;52.092;5.232;2024-02-14T13:46:34;11.13;;;8.87;;
17598;SDS011;8918;52.092;5.232;2024-02-14T13:49:00;10.43;;;8.60;;
17598;SDS011;8918;52.092;5.232;2024-02-14T13:51:26;10.97;;;9.07;;
17598;SDS011;8918;52.092;5.232;2024-02-14T13:53:52;13.70;;;9.83;;
17598;SDS011;8918;52.092;5.232;2024-02-14T13:56:18;12.23;;;9.97;;
17598;SDS011;8918;52.092;5.232;2024-02-14T13:58:46;11.63;;;9.97;;
17598;SDS011;8918;52.092;5.232;2024-02-14T14:01:14;11.47;;;9.73;;
17598;SDS011;8918;52.092;5.232;2024-02-14T14:03:40;12.77;;;10.30;;
17598;SDS011;8918;52.092;5.232;2024-02-14T14:06:06;11.10;;;9.80;;
17598;SDS011;8918;52.092;5.232;2024-02-14T14:08:33;12.10;;;9.97;;
17598;SDS011;8918;52.092;5.232;2024-02-14T14:11:00;13.03;;;10.67;;
17598;SDS011;8918;52.092;5.232;2024-02-14T14:13:29;13.83;;;11.00;;
17598;SDS011;8918;52.092;5.232;2024-02-14T14:15:58;12.33;;;10.93;;
17598;SDS011;8918;52.092;5.232;2024-02-14T14:18:26;12.57;;;10.53;;
17598;SDS011;8918;52.092;5.232;2024-02-14T14:20:51;12.67;;;10.40;;
17598;SDS011;8918;52.092;5.232;2024-02-14T14:23:17;15.60;;;11.10;;
17598;SDS011;8918;52.092;5.232;2024-02-14T14:25:43;14.90;;;10.83;;
17598;SDS011;8918;52.092;5.232;2024-02-14T14:28:09;13.37;;;10.90;;
17598;SDS011;8918;52.092;5.232;2024-02-14T14:30:34;12.50;;;10.47;;
17598;SDS011;8918;52.092;5.232;2024-02-14T14:33:01;11.80;;;10.20;;